Time;durP1;ratioP1;P1;durP2;ratioP2;P2;SDS_P1;SDS_P2;PMS_P1;PMS_P2;Temp;Humidity;BMP_temperature;BMP_pressure;BME280_temperature;BME280_humidity;BME280_pressure;Samples;Min_cycle;Max_cycle;Signal;HPM_P1;HPM_P2
2022/10/15 00:00:50;;;;;;;10.97;6.67;;;;;;;11.63;100.00;96582.75;5024469;28;20489;-64
2022/10/15 00:03:18;;;;;;;8.13;7.43;;;;;;;11.54;100.00;96574.19;5022372;28;20269;-63
2022/10/15 00:05:46;;;;;;;7.50;6.80;;;;;;;11.51;100.00;96563.97;5023670;28;20861;-63
2022/10/15 00:08:16;;;;;;;7.77;7.07;;;;;;;11.65;100.00;96578.06;5024082;28;20210;-62
2022/10/15 00:10:44;;;;;;;8.07;7.20;;;;;;;11.59;100.00;96571.72;5027263;28;20233;-64
2022/10/15 00:13:12;;;;;;;7.97;7.13;;;;;;;11.51;100.00;96563.97;5024510;28;20207;-62
2022/10/15 00:15:40;;;;;;;7.73;7.03;;;;;;;11.50;100.00;96568.47;5022476;28;20990;-62
2022/10/15 00:18:08;;;;;;;7.13;6.43;;;;;;;11.54;100.00;96563.56;5023772;28;20215;-63
2022/10/15 00:20:36;;;;;;;7.77;7.00;;;;;;;11.49;100.00;96553.56;5025303;28;20669;-64
2022/10/15 00:23:07;;;;;;;6.70;6.10;;;;;;;11.50;100.00;96555.19;5024503;28;20207;-63
2022/10/15 00:25:41;;;;;;;9.23;6.43;;;;;;;11.44;100.00;96554.19;5025005;28;20309;-66
2022/10/15 00:28:09;;;;;;;6.87;6.07;;;;;;;11.42;100.00;96563.38;5022756;28;20672;-62
2022/10/15 00:30:37;;;;;;;6.57;5.97;;;;;;;11.42;100.00;96560.72;5024387;28;20195;-62
2022/10/15 00:33:05;;;;;;;6.63;6.23;;;;;;;11.41;100.00;96549.31;5025155;28;20207;-64
2022/10/15 00:35:33;;;;;;;6.23;5.77;;;;;;;11.44;100.00;96556.03;5024024;28;20227;-61
2022/10/15 00:38:01;;;;;;;6.50;6.10;;;;;;;11.43;100.00;96565.00;5026647;28;20522;-64
2022/10/15 00:40:29;;;;;;;6.90;6.40;;;;;;;11.54;100.00;96552.97;5029353;28;20218;-65
2022/10/15 00:43:11;;;;;;;6.60;6.00;;;;;;;11.52;100.00;96547.03;5026084;28;20210;-64
2022/10/15 00:45:39;;;;;;;6.67;6.27;;;;;;;11.57;100.00;96544.59;5029027;28;20243;-62
2022/10/15 00:48:08;;;;;;;6.67;6.17;;;;;;;11.64;100.00;96544.59;5029326;28;20213;-61
2022/10/15 00:50:36;;;;;;;6.03;5.40;;;;;;;11.57;100.00;96547.25;5028341;28;20206;-62
2022/10/15 00:53:06;;;;;;;5.57;5.17;;;;;;;11.52;100.00;96539.88;5027395;28;20452;-60
2022/10/15 00:55:37;;;;;;;6.13;5.63;;;;;;;11.51;100.00;96529.50;5025021;28;20227;-63
2022/10/15 00:58:08;;;;;;;6.27;5.87;;;;;;;11.51;100.00;96538.25;5028869;28;20236;-62
2022/10/15 01:00:37;;;;;;;6.03;5.63;;;;;;;11.53;100.00;96533.56;5029180;28;20220;-59
2022/10/15 01:03:06;;;;;;;5.90;5.50;;;;;;;11.50;100.00;96533.97;5025950;28;20360;-62
2022/10/15 01:05:36;;;;;;;6.20;5.70;;;;;;;11.59;100.00;96534.59;5024915;28;20219;-63
2022/10/15 01:08:04;;;;;;;5.63;5.30;;;;;;;11.53;100.00;96530.91;5026943;28;20210;-63
2022/10/15 01:10:38;;;;;;;5.83;5.33;;;;;;;11.55;100.00;96520.09;5028876;28;20242;-63
2022/10/15 01:13:12;;;;;;;6.30;5.90;;;;;;;11.51;100.00;96522.34;5029114;28;20308;-63
2022/10/15 01:15:46;;;;;;;6.63;6.03;;;;;;;11.48;100.00;96517.44;5027133;28;20600;-63
2022/10/15 01:18:16;;;;;;;5.57;5.17;;;;;;;11.54;100.00;96518.47;5025335;28;20206;-66
2022/10/15 01:20:52;;;;;;;5.73;5.33;;;;;;;11.53;100.00;96517.63;5027068;28;20578;-64
2022/10/15 01:24:10;;;;;;;6.33;5.83;;;;;;;11.49;100.00;96505.03;5027587;28;21767;-64
2022/10/15 01:27:13;;;;;;;5.80;5.40;;;;;;;11.57;100.00;96507.44;4999818;28;20230;-62
2022/10/15 01:30:04;;;;;;;6.10;5.73;;;;;;;11.53;100.00;96496.41;5015397;28;20214;-63
2022/10/15 01:32:36;;;;;;;6.20;5.70;;;;;;;11.49;100.00;96486.44;5026693;28;20223;-61
2022/10/15 01:35:10;;;;;;;6.93;6.30;;;;;;;11.53;100.00;96491.13;5025998;28;20222;-62
2022/10/15 01:37:41;;;;;;;6.53;5.90;;;;;;;11.52;100.00;96489.47;5026065;28;20215;-61
2022/10/15 01:40:16;;;;;;;6.23;5.77;;;;;;;11.53;100.00;96480.50;5026401;28;21764;-62
2022/10/15 01:42:47;;;;;;;6.00;5.60;;;;;;;11.54;100.00;96479.47;5026177;28;20217;-60
2022/10/15 01:45:19;;;;;;;6.17;5.77;;;;;;;11.60;100.00;96482.34;5025323;28;20219;-62
2022/10/15 01:47:52;;;;;;;6.67;6.17;;;;;;;11.57;100.00;96481.75;5026022;28;20407;-61
2022/10/15 01:50:23;;;;;;;6.23;5.73;;;;;;;11.54;100.00;96484.78;5029348;28;20207;-63
2022/10/15 01:52:54;;;;;;;6.50;6.00;;;;;;;11.55;100.00;96475.84;5025456;28;20805;-62
2022/10/15 01:55:24;;;;;;;6.97;6.37;;;;;;;11.52;100.00;96470.91;5025309;28;20756;-63
2022/10/15 01:57:54;;;;;;;6.93;6.33;;;;;;;11.53;100.00;96471.75;5027204;28;20303;-62
2022/10/15 02:00:22;;;;;;;6.87;6.20;;;;;;;11.48;100.00;96468.91;5024599;28;22674;-62
2022/10/15 02:02:52;;;;;;;6.20;5.73;;;;;;;11.53;100.00;96469.09;5027415;28;21140;-60
2022/10/15 02:05:23;;;;;;;5.87;5.40;;;;;;;11.50;100.00;96469.50;5023764;28;20234;-61
2022/10/15 02:07:57;;;;;;;6.40;5.90;;;;;;;11.48;100.00;96455.63;5026542;28;20207;-63
2022/10/15 02:10:28;;;;;;;6.23;5.70;;;;;;;11.56;100.00;96463.38;5018057;28;20638;-62
2022/10/15 02:13:05;;;;;;;5.30;4.90;;;;;;;11.56;100.00;96452.75;5023390;28;20227;-62
2022/10/15 02:15:37;;;;;;;5.73;5.23;;;;;;;11.56;100.00;96456.25;5023584;28;20739;-62
2022/10/15 02:18:10;;;;;;;4.60;4.30;;;;;;;11.62;100.00;96454.56;5024408;28;20683;-63
2022/10/15 02:20:44;;;;;;;5.67;5.27;;;;;;;11.58;100.00;96451.53;5026606;28;20477;-62
2022/10/15 02:23:17;;;;;;;4.73;4.47;;;;;;;11.58;100.00;96450.72;5025710;28;20871;-62
2022/10/15 02:25:46;;;;;;;5.50;5.10;;;;;;;11.54;100.00;96452.16;5024211;28;20227;-62
2022/10/15 02:28:16;;;;;;;4.83;4.50;;;;;;;11.49;100.00;96451.97;5024354;28;20199;-63
2022/10/15 02:30:47;;;;;;;5.63;5.13;;;;;;;11.44;100.00;96449.91;5025626;28;20217;-60
2022/10/15 02:33:17;;;;;;;4.93;4.43;;;;;;;11.45;100.00;96440.94;5019831;28;20575;-62
2022/10/15 02:35:46;;;;;;;5.70;5.10;;;;;;;11.45;100.00;96443.59;4998427;28;20650;-62
2022/10/15 02:38:18;;;;;;;5.70;5.30;;;;;;;11.43;100.00;96441.16;5020637;28;20393;-63
2022/10/15 02:40:47;;;;;;;5.20;4.90;;;;;;;11.35;100.00;96429.94;5027082;28;20512;-62
2022/10/15 02:43:15;;;;;;;5.07;4.67;;;;;;;11.39;100.00;96431.16;5025277;28;20194;-65
2022/10/15 02:45:44;;;;;;;5.27;4.87;;;;;;;11.32;100.00;96423.22;5024356;28;20224;-63
2022/10/15 02:48:12;;;;;;;4.70;4.37;;;;;;;11.51;100.00;96431.34;5028279;28;20222;-63
2022/10/15 02:50:42;;;;;;;4.83;4.53;;;;;;;11.48;100.00;96429.13;5026905;28;20441;-65
2022/10/15 02:53:10;;;;;;;4.67;4.37;;;;;;;11.44;100.00;96421.56;5023861;28;20789;-64
2022/10/15 02:55:39;;;;;;;4.60;4.17;;;;;;;11.44;100.00;96421.56;5025445;28;20233;-64
2022/10/15 02:58:07;;;;;;;5.60;4.83;;;;;;;11.42;100.00;96423.63;5026258;28;20288;-65
2022/10/15 03:00:36;;;;;;;6.10;4.60;;;;;;;11.41;100.00;96416.69;5023259;28;20534;-64
2022/10/15 03:03:04;;;;;;;4.17;3.87;;;;;;;11.40;100.00;96408.91;5026315;28;20228;-63
2022/10/15 03:05:34;;;;;;;7.27;4.33;;;;;;;11.41;100.00;96415.84;5023384;28;20336;-64
2022/10/15 03:08:04;;;;;;;3.70;3.40;;;;;;;11.42;100.00;96414.84;5010746;28;20318;-62
2022/10/15 03:10:33;;;;;;;4.13;3.83;;;;;;;11.42;100.00;96415.66;5025161;28;21714;-63
2022/10/15 03:13:03;;;;;;;4.13;3.73;;;;;;;11.42;100.00;96420.13;5011703;28;20234;-63
2022/10/15 03:15:31;;;;;;;4.50;3.87;;;;;;;11.43;100.00;96413.81;5021730;28;20246;-58
2022/10/15 03:17:59;;;;;;;3.77;3.53;;;;;;;11.53;100.00;96414.19;5024689;28;20229;-55
2022/10/15 03:20:28;;;;;;;4.07;3.80;;;;;;;11.44;100.00;96402.19;5022376;28;20678;-54
2022/10/15 03:22:56;;;;;;;3.93;3.73;;;;;;;11.53;100.00;96405.41;5023529;28;20207;-55
2022/10/15 03:25:26;;;;;;;3.80;3.60;;;;;;;11.52;100.00;96401.13;5026883;28;20226;-54
2022/10/15 03:27:55;;;;;;;4.17;3.87;;;;;;;11.50;100.00;96397.88;5025323;28;20705;-62
2022/10/15 03:30:23;;;;;;;4.20;3.77;;;;;;;11.48;100.00;96398.06;5023561;28;20225;-62
2022/10/15 03:32:51;;;;;;;4.90;3.73;;;;;;;11.46;100.00;96394.81;5024172;28;20230;-61
2022/10/15 03:35:19;;;;;;;4.00;3.80;;;;;;;11.43;100.00;96392.59;5023404;28;20987;-64
2022/10/15 03:37:47;;;;;;;3.97;3.30;;;;;;;11.46;100.00;96392.16;5022251;28;20376;-63
2022/10/15 03:40:15;;;;;;;3.33;3.13;;;;;;;11.42;100.00;96388.31;5026277;28;20207;-64
2022/10/15 03:42:45;;;;;;;3.57;3.37;;;;;;;11.42;100.00;96397.09;5024988;28;20408;-62
2022/10/15 03:45:13;;;;;;;3.37;3.17;;;;;;;11.40;100.00;96401.78;5022579;28;20223;-64
2022/10/15 03:47:41;;;;;;;3.33;3.03;;;;;;;11.44;100.00;96402.19;5024273;28;20702;-62
2022/10/15 03:50:10;;;;;;;3.40;3.20;;;;;;;11.41;100.00;96394.63;5023154;28;20207;-61
2022/10/15 03:52:39;;;;;;;3.37;3.17;;;;;;;11.39;100.00;96407.28;5023081;28;20233;-60
2022/10/15 03:55:08;;;;;;;3.43;3.23;;;;;;;11.37;100.00;96396.91;5024404;28;20737;-61
2022/10/15 03:57:37;;;;;;;4.10;3.80;;;;;;;11.39;100.00;96402.00;4964708;28;21336;-59
2022/10/15 04:00:09;;;;;;;4.30;3.50;;;;;;;11.39;100.00;96397.50;4959584;28;20212;-59
2022/10/15 04:02:37;;;;;;;3.83;3.53;;;;;;;11.45;100.00;96385.25;5017987;28;20202;-64
2022/10/15 04:05:06;;;;;;;3.43;3.23;;;;;;;11.45;100.00;96385.25;4987276;28;20227;-67
2022/10/15 04:07:34;;;;;;;4.33;3.47;;;;;;;11.37;100.00;96381.00;4985538;28;20218;-61
2022/10/15 04:10:02;;;;;;;3.53;3.33;;;;;;;11.48;100.00;96390.13;4990932;28;20665;-64
2022/10/15 04:12:31;;;;;;;4.77;3.57;;;;;;;11.36;100.00;96384.66;4983014;28;21008;-64
2022/10/15 04:14:59;;;;;;;4.20;3.65;;;;;;;11.42;100.00;96394.44;5013906;28;20527;-62
2022/10/15 04:17:29;;;;;;;6.23;3.87;;;;;;;11.44;100.00;96400.34;5016030;28;20702;-60
2022/10/15 04:19:57;;;;;;;4.50;4.20;;;;;;;11.42;100.00;96385.66;5020820;28;22329;-61
2022/10/15 04:22:25;;;;;;;4.47;3.77;;;;;;;11.42;100.00;96390.97;4941211;28;20207;-62
2022/10/15 04:24:54;;;;;;;4.17;3.87;;;;;;;11.43;100.00;96392.59;5004089;28;20227;-64
2022/10/15 04:27:22;;;;;;;4.13;3.77;;;;;;;11.42;100.00;96394.44;4986822;28;20211;-64
2022/10/15 04:29:50;;;;;;;3.70;3.50;;;;;;;11.40;100.00;96388.53;4964501;28;20207;-64
2022/10/15 04:32:18;;;;;;;3.00;2.77;;;;;;;11.45;100.00;96390.53;5021444;28;20217;-63
2022/10/15 04:34:48;;;;;;;2.97;2.83;;;;;;;11.40;100.00;96388.53;5020337;28;20218;-63
2022/10/15 04:37:16;;;;;;;2.97;2.77;;;;;;;11.42;100.00;96393.63;4968255;28;20261;-63
2022/10/15 04:39:44;;;;;;;2.83;2.73;;;;;;;11.43;100.00;96392.59;5014028;28;20750;-62
2022/10/15 04:42:12;;;;;;;3.20;3.00;;;;;;;11.41;100.00;96392.81;4928199;28;20582;-62
2022/10/15 04:44:40;;;;;;;2.63;2.53;;;;;;;11.43;100.00;96396.06;4968673;28;20828;-65
2022/10/15 04:47:08;;;;;;;3.23;2.93;;;;;;;11.37;100.00;96388.13;4989535;28;20529;-65
2022/10/15 04:49:37;;;;;;;3.07;2.90;;;;;;;11.42;100.00;96396.28;5010936;28;20898;-62
2022/10/15 04:52:06;;;;;;;2.87;2.77;;;;;;;11.47;100.00;96395.66;4989346;28;20802;-62
2022/10/15 04:54:35;;;;;;;2.57;2.37;;;;;;;11.50;100.00;96390.72;5017740;28;20413;-61
2022/10/15 04:57:03;;;;;;;2.47;2.37;;;;;;;11.49;100.00;96394.41;4965582;28;20210;-63
2022/10/15 04:59:32;;;;;;;2.60;2.37;;;;;;;11.50;100.00;96388.06;4966207;28;22192;-61
2022/10/15 05:02:00;;;;;;;2.53;2.40;;;;;;;11.44;100.00;96386.25;4986364;28;20214;-62
2022/10/15 05:04:28;;;;;;;2.30;2.20;;;;;;;11.51;100.00;96383.59;5013017;28;20218;-62
2022/10/15 05:06:56;;;;;;;2.37;2.27;;;;;;;11.49;100.00;96378.47;4991107;28;22822;-62
2022/10/15 05:09:26;;;;;;;2.50;2.40;;;;;;;11.47;100.00;96369.94;5015512;28;20206;-60
2022/10/15 05:11:54;;;;;;;2.30;2.20;;;;;;;11.52;100.00;96374.63;4989309;28;20215;-63
2022/10/15 05:14:23;;;;;;;2.07;1.93;;;;;;;11.48;100.00;96376.84;4921238;28;20941;-63
2022/10/15 05:16:51;;;;;;;2.67;2.47;;;;;;;11.48;100.00;96382.16;5018212;28;20538;-60
2022/10/15 05:19:20;;;;;;;1.70;1.60;;;;;;;11.51;100.00;96384.41;5015901;28;20778;-61
2022/10/15 05:21:48;;;;;;;1.63;1.63;;;;;;;11.53;100.00;96382.34;4990045;28;20207;-64
2022/10/15 05:24:21;;;;;;;1.83;1.73;;;;;;;11.52;100.00;96380.72;4992142;28;20579;-64
2022/10/15 05:26:51;;;;;;;1.70;1.70;;;;;;;11.50;100.00;96381.97;4961506;28;20239;-64
2022/10/15 05:29:19;;;;;;;1.80;1.70;;;;;;;11.53;100.00;96389.50;4990023;28;20358;-63
2022/10/15 05:31:50;;;;;;;1.40;1.40;;;;;;;11.60;100.00;96384.19;4970184;28;20839;-64
2022/10/15 05:34:18;;;;;;;1.33;1.33;;;;;;;11.57;100.00;96394.19;5014489;28;20336;-63
2022/10/15 05:36:46;;;;;;;1.43;1.43;;;;;;;11.52;100.00;96390.53;5018458;28;20954;-64
2022/10/15 05:39:14;;;;;;;1.30;1.30;;;;;;;11.47;100.00;96390.34;4927568;28;20937;-64
2022/10/15 05:41:43;;;;;;;1.23;1.23;;;;;;;11.53;100.00;96397.47;5019865;28;20202;-64
2022/10/15 05:44:12;;;;;;;1.33;1.30;;;;;;;11.50;100.00;96403.19;4933955;28;20218;-60
2022/10/15 05:46:40;;;;;;;1.73;1.73;;;;;;;11.57;100.00;96403.97;4959320;28;20811;-63
2022/10/15 05:49:08;;;;;;;1.47;1.47;;;;;;;11.49;100.00;96405.00;5018049;28;20213;-61
2022/10/15 05:51:37;;;;;;;1.53;1.43;;;;;;;11.52;100.00;96407.25;5020011;28;20676;-62
2022/10/15 05:54:06;;;;;;;1.23;1.23;;;;;;;11.57;100.00;96410.13;4979676;28;20234;-64
2022/10/15 05:56:34;;;;;;;1.13;1.13;;;;;;;11.55;100.00;96403.38;5005342;28;20249;-61
2022/10/15 05:59:03;;;;;;;1.33;1.33;;;;;;;11.51;100.00;96404.81;4979059;28;20566;-61
2022/10/15 06:01:33;;;;;;;1.47;1.40;;;;;;;11.53;100.00;96414.19;5007166;28;20686;-61
2022/10/15 06:04:01;;;;;;;1.80;1.63;;;;;;;11.54;100.00;96415.81;4953160;28;20849;-62
2022/10/15 06:06:29;;;;;;;1.40;1.30;;;;;;;11.59;100.00;96417.84;5016904;28;20447;-59
2022/10/15 06:09:00;;;;;;;1.03;1.03;;;;;;;11.55;100.00;96406.84;4981707;28;20513;-63
2022/10/15 06:11:29;;;;;;;1.63;1.53;;;;;;;11.60;100.00;96431.94;4968062;28;20845;-60
2022/10/15 06:13:57;;;;;;;1.70;1.70;;;;;;;11.62;100.00;96419.28;4991787;28;20223;-61
2022/10/15 06:16:25;;;;;;;1.50;1.40;;;;;;;11.56;100.00;96411.13;4961917;28;20242;-64
2022/10/15 06:18:54;;;;;;;1.40;1.40;;;;;;;11.71;100.00;96421.47;4933719;28;20553;-62
2022/10/15 06:21:22;;;;;;;1.30;1.23;;;;;;;11.69;100.00;96425.38;4989683;28;20215;-63
2022/10/15 06:23:51;;;;;;;1.23;1.23;;;;;;;11.70;100.00;96427.00;4989558;28;22612;-62
2022/10/15 06:26:19;;;;;;;1.70;1.50;;;;;;;11.63;100.00;96421.72;5018543;28;20226;-62
2022/10/15 06:28:47;;;;;;;1.50;1.50;;;;;;;11.78;100.00;96433.91;4990288;28;20396;-62
2022/10/15 06:31:15;;;;;;;1.90;1.80;;;;;;;11.85;100.00;96440.00;4991981;28;20295;-63
2022/10/15 06:33:43;;;;;;;1.70;1.60;;;;;;;11.83;100.00;96448.16;4967043;28;20555;-62
2022/10/15 06:36:13;;;;;;;2.07;1.87;;;;;;;11.85;100.00;96445.31;5016745;28;20749;-61
2022/10/15 06:38:43;;;;;;;1.43;1.43;;;;;;;11.80;100.00;96453.09;5020116;28;20206;-62
2022/10/15 06:41:11;;;;;;;1.90;1.80;;;;;;;11.81;100.00;96458.19;4989535;28;20235;-64
2022/10/15 06:43:39;;;;;;;1.40;1.40;;;;;;;11.81;100.00;96460.84;4982400;28;20617;-63
2022/10/15 06:46:07;;;;;;;1.50;1.50;;;;;;;11.83;100.00;96453.47;4995763;28;20536;-61
2022/10/15 06:48:38;;;;;;;2.43;2.23;;;;;;;11.79;100.00;96451.47;4975825;28;20199;-62
2022/10/15 06:51:06;;;;;;;1.63;1.53;;;;;;;11.81;100.00;96468.00;4989273;28;20219;-63
2022/10/15 06:53:39;;;;;;;1.67;1.60;;;;;;;11.84;100.00;96462.28;5013719;28;20214;-62
2022/10/15 06:56:07;;;;;;;2.10;2.00;;;;;;;11.92;100.00;96469.16;4994634;28;20453;-63
2022/10/15 06:58:36;;;;;;;1.97;1.87;;;;;;;11.90;100.00;96464.09;4989627;28;20578;-64
2022/10/15 07:01:06;;;;;;;1.60;1.60;;;;;;;11.99;100.00;96475.28;4993941;28;20701;-61
2022/10/15 07:03:35;;;;;;;1.70;1.60;;;;;;;11.96;100.00;96463.25;4975047;28;20436;-61
2022/10/15 07:06:04;;;;;;;1.67;1.60;;;;;;;12.09;100.00;96478.34;5019269;28;20219;-64
2022/10/15 07:08:33;;;;;;;1.90;1.80;;;;;;;12.23;100.00;96476.44;5014492;28;20261;-63
2022/10/15 07:11:03;;;;;;;1.60;1.60;;;;;;;12.17;100.00;96487.91;4993307;28;20328;-60
2022/10/15 07:13:32;;;;;;;1.60;1.50;;;;;;;12.23;100.00;96489.72;5000328;28;21594;-62
2022/10/15 07:16:04;;;;;;;1.70;1.70;;;;;;;12.22;100.00;96481.94;4991389;28;20231;-62
2022/10/15 07:18:32;;;;;;;1.67;1.67;;;;;;;12.10;100.00;96468.50;5015159;28;20591;-62
2022/10/15 07:21:00;;;;;;;2.10;2.00;;;;;;;12.23;100.00;96492.38;4972567;28;20431;-64
2022/10/15 07:23:29;;;;;;;2.60;2.50;;;;;;;12.34;100.00;96495.38;5016047;28;20682;-63
2022/10/15 07:25:58;;;;;;;2.73;2.63;;;;;;;12.26;100.00;96507.88;4990977;28;21201;-62
2022/10/15 07:28:27;;;;;;;3.33;2.60;;;;;;;12.35;100.00;96502.31;4978991;28;20267;-62
2022/10/15 07:31:00;;;;;;;2.40;2.30;;;;;;;12.33;100.00;96504.38;4991122;28;20206;-63
2022/10/15 07:33:28;;;;;;;2.40;2.30;;;;;;;12.38;100.00;96523.97;4961604;28;20338;-63
2022/10/15 07:35:56;;;;;;;2.40;2.20;;;;;;;12.38;100.00;96516.00;4967606;28;20793;-60
2022/10/15 07:38:25;;;;;;;2.40;2.30;;;;;;;12.41;100.00;96520.06;4995633;28;20394;-62
2022/10/15 07:40:57;;;;;;;2.63;2.53;;;;;;;12.42;100.00;96514.56;4970940;28;20497;-63
2022/10/15 07:43:25;;;;;;;2.40;2.30;;;;;;;12.44;100.00;96530.25;4989590;28;20697;-62
2022/10/15 07:45:55;;;;;;;3.03;2.80;;;;;;;12.53;100.00;96520.22;4988583;28;20413;-62
2022/10/15 07:48:23;;;;;;;3.17;3.07;;;;;;;12.49;100.00;96521.66;4995217;28;20731;-61
2022/10/15 07:50:54;;;;;;;3.30;3.00;;;;;;;12.53;100.00;96534.31;4989082;28;20302;-63
2022/10/15 07:53:22;;;;;;;2.63;2.53;;;;;;;12.57;100.00;96532.03;4966762;28;20249;-64
2022/10/15 07:55:51;;;;;;;3.20;2.90;;;;;;;12.52;100.00;96524.72;4995034;28;20222;-64
2022/10/15 07:58:19;;;;;;;3.63;3.43;;;;;;;12.55;100.00;96537.59;4989902;28;20613;-63
2022/10/15 08:00:47;;;;;;;4.30;3.90;;;;;;;12.54;100.00;96533.31;5021269;28;20199;-62
2022/10/15 08:03:17;;;;;;;3.30;3.20;;;;;;;12.49;100.00;96524.31;4985648;28;20219;-64
2022/10/15 08:05:46;;;;;;;3.07;2.90;;;;;;;12.52;100.00;96531.88;5012687;28;20345;-62
2022/10/15 08:08:14;;;;;;;3.10;3.00;;;;;;;12.65;100.00;96542.41;4970681;28;20226;-64
2022/10/15 08:10:42;;;;;;;3.17;2.97;;;;;;;12.68;100.00;96539.34;4992812;28;20488;-62
2022/10/15 08:13:11;;;;;;;3.10;3.00;;;;;;;12.66;100.00;96532.63;5019541;28;20203;-63
2022/10/15 08:15:39;;;;;;;3.67;3.30;;;;;;;12.65;100.00;96547.72;4999697;28;20842;-65
2022/10/15 08:18:08;;;;;;;3.30;3.10;;;;;;;12.77;100.00;96541.75;4963952;28;20401;-63
2022/10/15 08:20:38;;;;;;;3.33;3.03;;;;;;;12.79;100.00;96545.81;4992389;28;20217;-62
2022/10/15 08:23:14;;;;;;;3.23;3.13;;;;;;;12.73;100.00;96544.03;4973046;28;20894;-62
2022/10/15 08:25:42;;;;;;;3.80;3.60;;;;;;;12.82;100.00;96541.94;4994280;28;20230;-61
2022/10/15 08:28:11;;;;;;;2.90;2.77;;;;;;;12.84;100.00;96555.81;5006111;28;20337;-61
2022/10/15 08:30:40;;;;;;;3.20;3.00;;;;;;;12.79;100.00;96548.47;4947434;28;20206;-63
2022/10/15 08:33:08;;;;;;;3.57;3.37;;;;;;;12.86;100.00;96554.56;4988657;28;20211;-63
2022/10/15 08:35:42;;;;;;;3.77;3.57;;;;;;;12.91;100.00;96559.25;4994372;28;20675;-64
2022/10/15 08:38:10;;;;;;;3.37;3.23;;;;;;;12.99;100.00;96566.16;4940482;28;26440;-64
2022/10/15 08:40:47;;;;;;;3.60;3.40;;;;;;;12.93;100.00;96578.47;4992571;28;20210;-63
2022/10/15 08:43:21;;;;;;;4.17;3.33;;;;;;;13.05;100.00;96577.78;5019349;28;20660;-63
2022/10/15 08:45:51;;;;;;;4.57;4.23;;;;;;;13.11;100.00;96574.28;4986360;28;20241;-62
2022/10/15 08:48:23;;;;;;;4.03;3.83;;;;;;;13.23;100.00;96590.34;4957809;28;20529;-64
2022/10/15 08:50:56;;;;;;;3.87;3.67;;;;;;;13.40;100.00;96585.31;4979204;28;20440;-62
2022/10/15 08:53:26;;;;;;;3.93;3.60;;;;;;;13.46;100.00;96582.63;4963714;28;20340;-63
2022/10/15 08:55:57;;;;;;;4.03;3.60;;;;;;;13.63;100.00;96591.91;4930946;28;20359;-64
2022/10/15 08:58:29;;;;;;;4.00;3.70;;;;;;;13.76;100.00;96597.13;5009000;28;20824;-62
2022/10/15 09:01:00;;;;;;;4.07;3.67;;;;;;;13.88;100.00;96592.72;4977436;28;20304;-63
2022/10/15 09:03:35;;;;;;;3.00;2.90;;;;;;;13.86;100.00;96594.78;4987820;28;20214;-63
2022/10/15 09:06:10;;;;;;;2.93;2.80;;;;;;;13.91;100.00;96602.09;4994828;28;20226;-64
2022/10/15 09:08:45;;;;;;;3.00;2.80;;;;;;;13.74;100.00;96596.50;4965892;28;20412;-61
2022/10/15 09:11:18;;;;;;;3.00;2.80;;;;;;;13.87;100.00;96604.41;4992583;28;20213;-64
2022/10/15 09:13:47;;;;;;;3.37;2.70;;;;;;;13.96;100.00;96614.78;5014610;28;20214;-64
2022/10/15 09:16:17;;;;;;;2.73;2.50;;;;;;;14.07;100.00;96608.72;4991738;28;20222;-64
2022/10/15 09:18:47;;;;;;;2.60;2.50;;;;;;;14.23;100.00;96609.19;4930581;28;20779;-61
2022/10/15 09:21:17;;;;;;;3.07;2.87;;;;;;;14.28;100.00;96614.66;4995729;28;20227;-62
2022/10/15 09:23:45;;;;;;;3.53;2.83;;;;;;;14.45;100.00;96607.69;4964350;28;20955;-63
2022/10/15 09:26:23;;;;;;;2.53;2.33;;;;;;;14.64;100.00;96609.53;5018434;28;20418;-61
2022/10/15 09:28:59;;;;;;;3.20;3.10;;;;;;;14.66;100.00;96616.28;5000469;28;20218;-60
2022/10/15 09:31:30;;;;;;;2.63;2.53;;;;;;;14.70;100.00;96620.16;4991401;28;20244;-61
2022/10/15 09:34:03;;;;;;;3.40;2.30;;;;;;;14.79;100.00;96622.50;4988604;28;21103;-63
2022/10/15 09:36:37;;;;;;;2.20;2.10;;;;;;;14.75;100.00;96624.78;4971993;28;20463;-62
2022/10/15 09:39:16;;;;;;;3.03;2.93;;;;;;;14.82;100.00;96627.38;4939599;28;20226;-63
2022/10/15 09:41:52;;;;;;;1.47;1.40;;;;;;;14.98;100.00;96625.94;5015160;28;20276;-63
2022/10/15 09:44:22;;;;;;;1.10;1.00;;;;;;;15.07;100.00;96631.78;4992242;28;20206;-63
2022/10/15 09:46:51;;;;;;;5.73;1.50;;;;;;;15.08;100.00;96623.53;4985945;28;23034;-62
2022/10/15 09:49:22;;;;;;;0.93;0.93;;;;;;;14.96;100.00;96634.16;5018056;28;20203;-63
2022/10/15 09:51:58;;;;;;;2.73;0.83;;;;;;;14.82;100.00;96633.53;4971673;28;20821;-63
2022/10/15 09:54:33;;;;;;;1.07;0.80;;;;;;;14.71;100.00;96629.78;4999548;28;20231;-64
2022/10/15 09:57:01;;;;;;;0.70;0.70;;;;;;;15.07;100.00;96640.59;4947550;28;20937;-64
2022/10/15 09:59:30;;;;;;;1.83;1.17;;;;;;;15.30;100.00;96641.72;4987946;28;20211;-64
2022/10/15 10:02:05;;;;;;;0.93;0.93;;;;;;;15.24;100.00;96653.31;5017113;28;20555;-64
2022/10/15 10:04:37;;;;;;;0.70;0.70;;;;;;;15.21;100.00;96659.09;4962558;28;20260;-61
2022/10/15 10:07:08;;;;;;;1.70;1.50;;;;;;;15.32;100.00;96652.97;4991033;28;20207;-63
2022/10/15 10:09:38;;;;;;;1.20;1.10;;;;;;;15.36;100.00;96658.69;4980154;28;20212;-64
2022/10/15 10:12:08;;;;;;;1.17;1.10;;;;;;;15.27;100.00;96650.97;4965646;28;20709;-63
2022/10/15 10:14:44;;;;;;;1.03;1.03;;;;;;;15.22;100.00;96658.06;4988409;28;20411;-63
2022/10/15 10:17:17;;;;;;;1.00;1.00;;;;;;;15.15;100.00;96661.63;4985250;28;20230;-63
2022/10/15 10:20:02;;;;;;;1.03;1.03;;;;;;;15.26;100.00;96667.25;4990740;28;20211;-62
2022/10/15 10:22:42;;;;;;;1.37;1.27;;;;;;;15.18;100.00;96671.84;4986028;28;20229;-62
2022/10/15 10:25:35;;;;;;;1.00;1.00;;;;;;;15.07;100.00;96669.13;4992874;28;20229;-62
2022/10/15 10:28:15;;;;;;;2.80;2.60;;;;;;;15.39;100.00;96677.72;4975308;28;20668;-61
2022/10/15 10:30:51;;;;;;;1.10;1.10;;;;;;;15.55;100.00;96678.94;4981555;28;20210;-62
2022/10/15 10:33:25;;;;;;;1.10;1.10;;;;;;;15.44;100.00;96677.84;5016780;28;20199;-62
2022/10/15 10:35:54;;;;;;;1.80;1.70;;;;;;;15.45;100.00;96684.81;4991744;28;20736;-54
2022/10/15 10:38:25;;;;;;;1.73;1.63;;;;;;;15.38;100.00;96683.28;4994215;28;20219;-55
2022/10/15 10:40:56;;;;;;;1.37;1.37;;;;;;;15.47;100.00;96688.06;5018741;28;20233;-56
2022/10/15 10:43:27;;;;;;;0.90;0.90;;;;;;;15.71;100.00;96685.47;4974982;28;20921;-58
2022/10/15 10:45:57;;;;;;;0.90;0.90;;;;;;;16.01;100.00;96681.13;4995744;28;20409;-59
2022/10/15 10:48:27;;;;;;;0.90;0.90;;;;;;;16.51;100.00;96681.72;5014875;28;20213;-60
2022/10/15 10:51:04;;;;;;;0.80;0.80;;;;;;;16.66;100.00;96683.88;4968292;28;21181;-63
2022/10/15 10:53:47;;;;;;;1.13;1.00;;;;;;;16.69;100.00;96670.06;4993718;28;20484;-62
2022/10/15 10:56:20;;;;;;;4.07;1.43;;;;;;;16.93;100.00;96660.91;4990132;28;20230;-60
2022/10/15 10:58:49;;;;;;;2.63;2.23;;;;;;;17.31;100.00;96672.09;4972698;28;20208;-61
2022/10/15 11:01:17;;;;;;;1.10;1.10;;;;;;;17.56;100.00;96670.91;4989883;28;20234;-63
2022/10/15 11:03:47;;;;;;;0.90;0.90;;;;;;;17.68;100.00;96662.00;4987394;28;20210;-63
2022/10/15 11:06:31;;;;;;;1.07;1.00;;;;;;;17.97;100.00;96672.63;4974738;28;21027;-62
2022/10/15 11:09:09;;;;;;;1.40;0.60;;;;;;;18.15;100.00;96660.88;4988708;28;20207;-62
2022/10/15 11:11:42;;;;;;;0.73;0.73;;;;;;;18.59;100.00;96660.16;4946790;28;20558;-63
2022/10/15 11:14:20;;;;;;;1.90;1.50;;;;;;;18.84;100.00;96665.03;5015237;28;20206;-62
2022/10/15 11:16:53;;;;;;;0.40;0.40;;;;;;;18.83;100.00;96649.19;4975465;28;20230;-62
2022/10/15 11:19:28;;;;;;;0.87;0.70;;;;;;;19.07;100.00;96639.81;4978192;28;20493;-62
2022/10/15 11:22:28;;;;;;;0.50;0.50;;;;;;;19.33;100.00;96644.66;4939849;28;22582;-61
2022/10/15 11:25:03;;;;;;;0.80;0.80;;;;;;;19.26;100.00;96642.16;5015008;28;20406;-62
2022/10/15 11:27:46;;;;;;;0.90;0.70;;;;;;;19.16;100.00;96640.19;4963724;28;20768;-63
2022/10/15 11:30:27;;;;;;;0.90;0.63;;;;;;;19.14;100.00;96626.19;5014656;28;20232;-62
2022/10/15 11:33:02;;;;;;;0.50;0.50;;;;;;;19.16;100.00;96625.97;4990855;28;20224;-63
2022/10/15 11:35:41;;;;;;;1.40;0.60;;;;;;;19.52;100.00;96621.72;5012912;28;20529;-61
2022/10/15 11:38:29;;;;;;;0.50;0.50;;;;;;;19.43;100.00;96619.75;4959705;28;21275;-60
2022/10/15 11:41:14;;;;;;;0.40;0.40;;;;;;;18.96;100.00;96624.63;5013703;28;20214;-61